Participated 1 time
in 1987
Bernard Chesneau, France
Tour de France 2026 starts from Edinburgh, Scotland in

Stats and Facts from
Tour de France.

2026   2025   2024   2023  2022  2021  2020  2019   2018  2017   2016   2015  2014  2013   2012   2011  2010   2009   2008   2007   2006   2005   2004   2003   2002   2001   2000   1999   1998   1997  1996   1995   1994   1993   1992  1991   1990   1989   1988   1987   1986   1985   1984   1983  1982  1981   1980   1979  1978  1977   1976  1975  1974  1973   1972   1971   1970  1969   1968   1967   1966   1965  1964  1963   1962   1961   1960   1959   1958   1957  1956   1955   1954   1953   1952  1951  1950  1949   1948  1947  1939   1938   1937   1936   1935   1934   1933  1932   1931   1930  1929   1928   1927   1926  1925  1924  1923   1922   1921   1920   1919  1914   1913   1912   1911   1910  1909   1908   1907   1906  1905  1904   1903 

Tourstats
Sitemap

After stage 21 - 2026:
 16451 starters.
  5513 different riders.
  689 teams.
  2419 stages.
  470 restdays.
  469752.50 km.
  5946 abandoned riders.

Click map for 2002 route.
Facts from Tour de France 2002
  |   Stages.  |   Stage winners.  |   Days in jerseys.  |   Teams.  |   All riders.  |   All riders by age.  |   All riders from.  |  

  |   Rookies.  |   Withdrawls.  |   Average speed.  |   GC.  |   Polka  |   Green  |   White  |   Summits. (In tour)  |   Miscellaneous.  |  

Stage 4 on July 10th. 2002
Pick a stage:  Pro  1  2  3  4  5  6  7  8  9  10  11  12  13  14  15  16  17  18  19  20  

After stage 4:    Igor González De Galdeano  
  ÉpernayChâteau-Thierry | Dist: 67.50km. | Winner: Juan José Oroz

Podium

Average speed for all riders in stage:  48,825 km./hr.

1
 Abraham Olano  O.N.C.E.-Eroski01h 19' 49"=50,741  km/h

2
 Álvaro Gonzalez De Galdeano  O.N.C.E.-Eroski01h 19' 49"=50,741  km/h

3
 Igor González De Galdeano  O.N.C.E.-Eroski01h 19' 49"=50,741  km/h

4  Isidro Nozal  O.N.C.E.-Eroski01h 19' 49"=50,741  km/h

5  Jörg Jaksche  O.N.C.E.-Eroski01h 19' 49"=50,741  km/h

6  José Azevedo  O.N.C.E.-Eroski01h 19' 49"=50,741  km/h

7  Joseba Beloki  O.N.C.E.-Eroski01h 19' 49"=50,741  km/h

8  Marcos Serrano  O.N.C.E.-Eroski01h 19' 49"=50,741  km/h

9  Benoit Joachim  US Postal Service01h 20' 05"+  00:00:16 =50,572  km/h

10  Floyd Landis  US Postal Service01h 20' 05"+  00:00:16 =50,572  km/h

11  George Hincapie  US Postal Service01h 20' 05"+  00:00:16 =50,572  km/h

12  José-Luis Rubiera  US Postal Service01h 20' 05"+  00:00:16 =50,572  km/h

13  Lance Armstrong  US Postal Service01h 20' 05"+  00:00:16 =50,572  km/h

14  Pavel Padrnos  US Postal Service01h 20' 05"+  00:00:16 =50,572  km/h

15  Roberto Heras  US Postal Service01h 20' 05"+  00:00:16 =50,572  km/h

16  Victor Hugo Peña  US Postal Service01h 20' 05"+  00:00:16 =50,572  km/h

17  Viatcheslav Ekimov  US Postal Service01h 20' 14"+  00:00:25 =50,478  km/h

18  Andrea Peron  CSC-Tiscali01h 20' 35"+  00:00:46 =50,259  km/h

19  Carlos Sastre  CSC-Tiscali01h 20' 35"+  00:00:46 =50,259  km/h

20  Jakob Piil  CSC-Tiscali01h 20' 35"+  00:00:46 =50,259  km/h

21  Laurent Jalabert  CSC-Tiscali01h 20' 35"+  00:00:46 =50,259  km/h

22  Nicki Sørensen  CSC-Tiscali01h 20' 35"+  00:00:46 =50,259  km/h

23  Paul Van Hyfte  CSC-Tiscali01h 20' 35"+  00:00:46 =50,259  km/h

24  Tyler Hamilton  CSC-Tiscali01h 20' 35"+  00:00:46 =50,259  km/h

25  Ivan Basso  Fassa Bortolo01h 21' 19"+  00:01:30 =49,805  km/h

26  Marco Velo  Fassa Bortolo01h 21' 19"+  00:01:30 =49,805  km/h

27  Serguei Ivanov  Fassa Bortolo01h 21' 19"+  00:01:30 =49,805  km/h

28  Serhiy Honchar  Fassa Bortolo01h 21' 19"+  00:01:30 =49,805  km/h

29  Volodymir Gustov  Fassa Bortolo01h 21' 19"+  00:01:30 =49,805  km/h

30  Wladimir Belli  Fassa Bortolo01h 21' 19"+  00:01:30 =49,805  km/h

31  Andrei Kivilev  Cofidis Credit Par Telephone01h 21' 19"+  00:01:30 =49,805  km/h

32  Cédric Vasseur  Cofidis Credit Par Telephone01h 21' 33"+  00:01:44 =49,663  km/h

33  Daniel Atienza  Cofidis Credit Par Telephone01h 21' 33"+  00:01:44 =49,663  km/h

34  David Millar  Cofidis Credit Par Telephone01h 21' 33"+  00:01:44 =49,663  km/h

35  David Moncoutié  Cofidis Credit Par Telephone01h 21' 33"+  00:01:44 =49,663  km/h

36  Iñigo Cuesta  Cofidis Credit Par Telephone01h 21' 33"+  00:01:44 =49,663  km/h

37  Massimiliano Lelli  Cofidis Credit Par Telephone01h 21' 33"+  00:01:44 =49,663  km/h

38  Nico Mattan  Cofidis Credit Par Telephone01h 21' 33"+  00:01:44 =49,663  km/h

39  Bingen Fernandez  Cofidis Credit Par Telephone01h 21' 42"+  00:01:53 =49,572  km/h

40  Dariusz Baranowski  ibanesto.com01h 21' 45"+  00:01:56 =49,541  km/h

41  David Latasa  ibanesto.com01h 21' 45"+  00:01:56 =49,541  km/h

42  Denis Menchov  ibanesto.com01h 21' 45"+  00:01:56 =49,541  km/h

43  Francisco Mancebo  ibanesto.com01h 21' 45"+  00:01:56 =49,541  km/h

44  Javier Rodriguez  ibanesto.com01h 21' 45"+  00:01:56 =49,541  km/h

45  José Garcia Acosta  ibanesto.com01h 21' 45"+  00:01:56 =49,541  km/h

46  Santiago Blanco  ibanesto.com01h 21' 45"+  00:01:56 =49,541  km/h

47  Unai Osa  ibanesto.com01h 21' 45"+  00:01:56 =49,541  km/h

48  Axel Merckx  Domo-Farm Frites01h 22' 01"+  00:02:12 =49,380  km/h

49  Dave Bruylandts  Domo-Farm Frites01h 22' 01"+  00:02:12 =49,380  km/h

50  Enrico Cassani  Domo-Farm Frites01h 22' 01"+  00:02:12 =49,380  km/h

51  Piotr Wadecki  Domo-Farm Frites01h 22' 01"+  00:02:12 =49,380  km/h

52  Richard Virenque  Domo-Farm Frites01h 22' 01"+  00:02:12 =49,380  km/h

53  Servais Knaven  Domo-Farm Frites01h 22' 01"+  00:02:12 =49,380  km/h

54  Tomáš Konecný  Domo-Farm Frites01h 22' 01"+  00:02:12 =49,380  km/h

55  Leon van Bon  Domo-Farm Frites01h 22' 04"+  00:02:15 =49,350  km/h

56  Beat Zberg  Rabobank01h 22' 05"+  00:02:16 =49,340  km/h

57  Erik Dekker  Rabobank01h 22' 05"+  00:02:16 =49,340  km/h

58  Grischa Niermann  Rabobank01h 22' 05"+  00:02:16 =49,340  km/h

59  Karsten Kroon  Rabobank01h 22' 05"+  00:02:16 =49,340  km/h

60  Levi Leipheimer  Rabobank01h 22' 05"+  00:02:16 =49,340  km/h

61  Marc Wauters  Rabobank01h 22' 05"+  00:02:16 =49,340  km/h

62  Michael Boogerd  Rabobank01h 22' 05"+  00:02:16 =49,340  km/h

63  Constantino Zaballa  Kelme-Costa Blanca01h 22' 08"+  00:02:19 =49,310  km/h

64  José Enrique Gutierrez  Kelme-Costa Blanca01h 22' 08"+  00:02:19 =49,310  km/h

65  Óscar Sevilla  Kelme-Costa Blanca01h 22' 08"+  00:02:19 =49,310  km/h

66  Santiago Botero  Kelme-Costa Blanca01h 22' 08"+  00:02:19 =49,310  km/h

67  Santiago Pérez  Kelme-Costa Blanca01h 22' 08"+  00:02:19 =49,310  km/h

68  Antonio Tauler  Kelme-Costa Blanca01h 22' 08"+  00:02:19 =49,310  km/h

69  Ludo Dierckxsens  Lampre-Daikin01h 22' 11"+  00:02:22 =49,280  km/h

70  Marco Pinotti  Lampre-Daikin01h 22' 11"+  00:02:22 =49,280  km/h

71  Raimondas  Rumšas  Lampre-Daikin01h 22' 11"+  00:02:22 =49,280  km/h

72  Raivis  Belohvoščiks  Lampre-Daikin01h 22' 11"+  00:02:22 =49,280  km/h

73  Rubens Bertogliati  Lampre-Daikin01h 22' 11"+  00:02:22 =49,280  km/h

74  Fred Rodriguez  Domo-Farm Frites01h 22' 12"+  00:02:23 =49,270  km/h

75  Anthony Langella  Credit Agricole01h 22' 17"+  00:02:28 =49,220  km/h

76  Anthony Morin  Credit Agricole01h 22' 17"+  00:02:28 =49,220  km/h

77  Christophe Moreau  Credit Agricole01h 22' 17"+  00:02:28 =49,220  km/h

78  Frédéric Bessy  Credit Agricole01h 22' 17"+  00:02:28 =49,220  km/h

79  Jens Voigt  Credit Agricole01h 22' 17"+  00:02:28 =49,220  km/h

80  Jonathan Vaughters  Credit Agricole01h 22' 17"+  00:02:28 =49,220  km/h

81  Sébastien Hinault  Credit Agricole01h 22' 17"+  00:02:28 =49,220  km/h

82  Stuart O'Grady  Credit Agricole01h 22' 17"+  00:02:28 =49,220  km/h

83  Thor Hushovd  Credit Agricole01h 22' 17"+  00:02:28 =49,220  km/h

84  Ján Svorada  Lampre-Daikin01h 22' 29"+  00:02:40 =49,101  km/h

85  Bobby Julich  Telekom01h 22' 36"+  00:02:47 =49,031  km/h

86  Danilo Hondo  Telekom01h 22' 36"+  00:02:47 =49,031  km/h

87  Erik Zabel  Telekom01h 22' 36"+  00:02:47 =49,031  km/h

88  Giuseppe Guerini  Telekom01h 22' 36"+  00:02:47 =49,031  km/h

89  Kevin Livingston  Telekom01h 22' 36"+  00:02:47 =49,031  km/h

90  Rolf Aldag  Telekom01h 22' 36"+  00:02:47 =49,031  km/h

91  Steffen Wesemann  Telekom01h 22' 36"+  00:02:47 =49,031  km/h

92  Udo Bölts  Telekom01h 22' 36"+  00:02:47 =49,031  km/h

93  Didier Rous  Bonjour01h 23' 02"+  00:03:13 =48,776  km/h

94  Franck Bouyer  Bonjour01h 23' 02"+  00:03:13 =48,776  km/h

95  Franck Renier  Bonjour01h 23' 02"+  00:03:13 =48,776  km/h

96  François Simon  Bonjour01h 23' 02"+  00:03:13 =48,776  km/h

97  Jérôme Pineau  Bonjour01h 23' 02"+  00:03:13 =48,776  km/h

98  Sylvain Chavanel  Bonjour01h 23' 02"+  00:03:13 =48,776  km/h

99  Walter Bénéteau  Bonjour01h 23' 02"+  00:03:13 =48,776  km/h

100  Alexandr Shefer  Alessio01h 23' 04"+  00:03:15 =48,756  km/h

101  Cristian Moreni  Alessio01h 23' 04"+  00:03:15 =48,756  km/h

102  Ivan Gotti  Alessio01h 23' 04"+  00:03:15 =48,756  km/h

103  Laurent Dufaux  Alessio01h 23' 04"+  00:03:15 =48,756  km/h

104  Martin Hvastija  Alessio01h 23' 04"+  00:03:15 =48,756  km/h

105  Ruslan Ivanov  Alessio01h 23' 04"+  00:03:15 =48,756  km/h

106  Andrea Brognara  Alessio01h 23' 09"+  00:03:20 =48,707  km/h

107  Damien Nazon  Bonjour01h 23' 18"+  00:03:29 =48,619  km/h

108  Aart Vierhouten  Lotto-Adecco01h 23' 21"+  00:03:32 =48,590  km/h

109  Christophe Brandt  Lotto-Adecco01h 23' 21"+  00:03:32 =48,590  km/h

110  Guennadi Mikhailov  Lotto-Adecco01h 23' 21"+  00:03:32 =48,590  km/h

111  Hans De Clercq  Lotto-Adecco01h 23' 21"+  00:03:32 =48,590  km/h

112  Mario Aerts  Lotto-Adecco01h 23' 21"+  00:03:32 =48,590  km/h

113  Rik Verbrugghe  Lotto-Adecco01h 23' 21"+  00:03:32 =48,590  km/h

114  Robbie McEwen  Lotto-Adecco01h 23' 21"+  00:03:32 =48,590  km/h

115  Serge Baguet  Lotto-Adecco01h 23' 21"+  00:03:32 =48,590  km/h

116  Baden Cooke  fdjeux.com01h 23' 23"+  00:03:34 =48,571  km/h

117  Bradley McGee  fdjeux.com01h 23' 23"+  00:03:34 =48,571  km/h

118  Christophe Mengin  fdjeux.com01h 23' 23"+  00:03:34 =48,571  km/h

119  Frédéric Guesdon  fdjeux.com01h 23' 23"+  00:03:34 =48,571  km/h

120  Jacky Durand  fdjeux.com01h 23' 23"+  00:03:34 =48,571  km/h

121  Jean-Cyril Robin  fdjeux.com01h 23' 23"+  00:03:34 =48,571  km/h

122  Nicolas Vogondy  fdjeux.com01h 23' 23"+  00:03:34 =48,571  km/h

123  Sandy Casar  fdjeux.com01h 23' 23"+  00:03:34 =48,571  km/h

124  Oscar Pozzi  Fassa Bortolo01h 23' 23"+  00:03:34 =48,571  km/h

125  Thierry Marichal  Lotto-Adecco01h 23' 23"+  00:03:34 =48,571  km/h

126  Christophe Edaleine  Jean Delatour01h 23' 31"+  00:03:42 =48,493  km/h

127  Cyril Dessel  Jean Delatour01h 23' 32"+  00:03:43 =48,484  km/h

128  Eddy Seigneur  Jean Delatour01h 23' 32"+  00:03:43 =48,484  km/h

129  Jérôme Bernard  Jean Delatour01h 23' 32"+  00:03:43 =48,484  km/h

130  Laurent Brochard  Jean Delatour01h 23' 32"+  00:03:43 =48,484  km/h

131  Laurent Lefèvre  Jean Delatour01h 23' 32"+  00:03:43 =48,484  km/h

132  Patrice Halgand  Jean Delatour01h 23' 32"+  00:03:43 =48,484  km/h

133  Stéphane Goubert  Jean Delatour01h 23' 32"+  00:03:43 =48,484  km/h

134  Andrei Hauptman  Tacconi Sport01h 23' 34"+  00:03:45 =48,464  km/h

135  Dario Frigo  Tacconi Sport01h 23' 34"+  00:03:45 =48,464  km/h

136  Eddy Mazzoleni  Tacconi Sport01h 23' 34"+  00:03:45 =48,464  km/h

137  Gianluca Bortolami  Tacconi Sport01h 23' 34"+  00:03:45 =48,464  km/h

138  Massimo Donati  Tacconi Sport01h 23' 34"+  00:03:45 =48,464  km/h

139  Peter Luttenberger  Tacconi Sport01h 23' 34"+  00:03:45 =48,464  km/h

140  Fabien De Waele  Mapei-Quick Step01h 23' 36"+  00:03:47 =48,445  km/h

141  Gerhard Trampusch  Mapei-Quick Step01h 23' 36"+  00:03:47 =48,445  km/h

142  László Bodrogi  Mapei-Quick Step01h 23' 36"+  00:03:47 =48,445  km/h

143  Miguel Martinez  Mapei-Quick Step01h 23' 36"+  00:03:47 =48,445  km/h

144  Óscar Freire  Mapei-Quick Step01h 23' 36"+  00:03:47 =48,445  km/h

145  Pedro Horrillo  Mapei-Quick Step01h 23' 36"+  00:03:47 =48,445  km/h

146  Robert Hunter  Mapei-Quick Step01h 23' 36"+  00:03:47 =48,445  km/h

147  Tom Steels  Mapei-Quick Step01h 23' 36"+  00:03:47 =48,445  km/h

148  Emmanuel Magnien  Bonjour01h 23' 52"+  00:04:03 =48,291  km/h

149  Jimmy Casper  fdjeux.com01h 24' 08"+  00:04:19 =48,138  km/h

150  David Etxebarria  Euskaltel-Euskadi01h 24' 11"+  00:04:22 =48,109  km/h

151  Gorka Arrizabalaga  Euskaltel-Euskadi01h 24' 11"+  00:04:22 =48,109  km/h

152  Gorka González  Euskaltel-Euskadi01h 24' 11"+  00:04:22 =48,109  km/h

153  Haimar  Zubeldía  Euskaltel-Euskadi01h 24' 11"+  00:04:22 =48,109  km/h

154  Iban Mayo  Euskaltel-Euskadi01h 24' 11"+  00:04:22 =48,109  km/h

155  Igor Flores  Euskaltel-Euskadi01h 24' 11"+  00:04:22 =48,109  km/h

156  Roberto Laiseka  Euskaltel-Euskadi01h 24' 11"+  00:04:22 =48,109  km/h

157  Samuel Sanchez  Euskaltel-Euskadi01h 24' 11"+  00:04:22 =48,109  km/h

158  Alexandre Botcharov  AG2R-Decathlon01h 24' 13"+  00:04:24 =48,090  km/h

159  Andy Flickinger  AG2R-Decathlon01h 24' 13"+  00:04:24 =48,090  km/h

160  Christophe  Agnolutto  AG2R-Decathlon01h 24' 13"+  00:04:24 =48,090  km/h

161  Christophe Oriol  AG2R-Decathlon01h 24' 13"+  00:04:24 =48,090  km/h

162  Iñigo Chaurreau  AG2R-Decathlon01h 24' 13"+  00:04:24 =48,090  km/h

163  Ludovic Turpin  AG2R-Decathlon01h 24' 13"+  00:04:24 =48,090  km/h

164  Stéphane  Berges  AG2R-Decathlon01h 24' 13"+  00:04:24 =48,090  km/h

165  Thierry Loder  AG2R-Decathlon01h 24' 13"+  00:04:24 =48,090  km/h

166  Jaan Kirsipuu  AG2R-Decathlon01h 24' 48"+  00:04:59 =47,759  km/h

167  Gian Matteo Fagnini  Telekom01h 25' 28"+  00:05:39 =47,387  km/h

168  Stefano Casagranda  Alessio01h 25' 34"+  00:05:45 =47,332  km/h

169  Michael Sandstød  CSC-Tiscali01h 25' 35"+  00:05:46 =47,322  km/h

170  Marco Serpellini  Lampre-Daikin01h 26' 21"+  00:06:32 =46,902  km/h

171  Addy Engels  Rabobank01h 26' 49"+  00:07:00 =46,650  km/h

172  Alessandro Cortinovis  Lampre-Daikin01h 26' 49"+  00:07:00 =46,650  km/h

173  Andrea Tafi  Mapei-Quick Step01h 26' 49"+  00:07:00 =46,650  km/h

174  Arvis Piziks  CSC-Tiscali01h 26' 49"+  00:07:00 =46,650  km/h

175  Bram de Groot  Rabobank01h 26' 49"+  00:07:00 =46,650  km/h

176  Davide Casarotto  Alessio01h 26' 49"+  00:07:00 =46,650  km/h

177  Fabio Baldato  Fassa Bortolo01h 26' 49"+  00:07:00 =46,650  km/h

178  Francisco Cabello  Kelme-Costa Blanca01h 26' 49"+  00:07:00 =46,650  km/h

179  José Angel Vidal  Kelme-Costa Blanca01h 26' 49"+  00:07:00 =46,650  km/h

180  José Javier Gómez  Kelme-Costa Blanca01h 26' 49"+  00:07:00 =46,650  km/h

181  Luciano Pagliarini  Lampre-Daikin01h 26' 49"+  00:07:00 =46,650  km/h

182  Marzio Bruseghin  ibanesto.com01h 26' 49"+  00:07:00 =46,650  km/h

183  Massimo Apollonio  Tacconi Sport01h 26' 49"+  00:07:00 =46,650  km/h

184  Mauro Radaelli  Tacconi Sport01h 26' 49"+  00:07:00 =46,650  km/h

185  Mikel Pradera  O.N.C.E.-Eroski01h 26' 49"+  00:07:00 =46,650  km/h

186  Nicola Loda  Fassa Bortolo01h 26' 49"+  00:07:00 =46,650  km/h

187  Paolo Bossoni  Tacconi Sport01h 26' 49"+  00:07:00 =46,650  km/h

188  Stéphane Auge  Jean Delatour01h 26' 49"+  00:07:00 =46,650  km/h

189  Unai Etxebarria  Euskaltel-Euskadi01h 26' 49"+  00:07:00 =46,650  km/h


Todays birthdays.

1900 • Guy Bariffi
1901 • Alfonso Piccin
1934 • Jacques Champion
1936 • Raúl Rey
1960 • Marco Groppo
1963 • Stephan Joho
1975 • Alain Turicchia
1995 • Laurens De Plus

 

Optimized for Chrome - Edge
and Opera browsers.